Time;durP1;ratioP1;P1;durP2;ratioP2;P2;SDS_P1;SDS_P2;PMS_P1;PMS_P2;Temp;Humidity;BMP_temperature;BMP_pressure;BME280_temperature;BME280_humidity;BME280_pressure;Samples;Min_cycle;Max_cycle;Signal;HPM_P1;HPM_P2
2022/07/20 00:01:32;;;;;;;;;;;;;;;27.37;28.98;100196.75;4960130;28;7299;-83
2022/07/20 00:03:58;;;;;;;;;;;;;;;27.28;28.79;100197.88;4943357;28;7282;-83
2022/07/20 00:06:24;;;;;;;;;;;;;;;27.18;29.23;100201.63;4932561;28;6841;-83
2022/07/20 00:11:33;;;;;;;;;;;;;;;26.97;30.17;100188.09;4957891;28;6780;-82
2022/07/20 00:14:03;;;;;;;;;;;;;;;26.89;30.27;100190.03;4916337;28;7259;-83
2022/07/20 00:16:31;;;;;;;;;;;;;;;26.81;30.25;100189.31;4942921;28;7292;-83
2022/07/20 00:18:57;;;;;;;;;;;;;;;26.71;30.68;100192.16;4945207;28;6972;-83
2022/07/20 00:21:23;;;;;;;;;;;;;;;26.64;30.52;100187.91;4926707;28;7140;-83
2022/07/20 00:23:48;;;;;;;;;;;;;;;26.55;30.88;100185.50;4945546;28;6919;-83
2022/07/20 00:26:14;;;;;;;;;;;;;;;26.50;30.84;100177.72;4914632;28;7000;-83
2022/07/20 00:28:39;;;;;;;;;;;;;;;26.44;31.06;100181.34;4943886;28;7212;-83
2022/07/20 00:31:05;;;;;;;;;;;;;;;26.41;31.01;100177.91;4928267;28;8348;-83
2022/07/20 00:33:31;;;;;;;;;;;;;;;26.35;31.26;100176.28;4943263;28;7589;-82
2022/07/20 00:35:57;;;;;;;;;;;;;;;26.26;31.10;100173.84;4958405;28;7068;-83
2022/07/20 00:38:23;;;;;;;;;;;;;;;26.24;31.60;100175.66;4944153;28;7092;-83
2022/07/20 00:40:49;;;;;;;;;;;;;;;26.18;31.55;100177.50;4945641;28;7584;-83
2022/07/20 00:43:14;;;;;;;;;;;;;;;26.12;31.49;100176.72;4912502;28;6963;-83
2022/07/20 00:45:40;;;;;;;;;;;;;;;26.06;31.79;100170.72;4914598;28;7037;-83
2022/07/20 00:48:06;;;;;;;;;;;;;;;26.02;31.72;100176.91;4913331;28;7436;-83
2022/07/20 00:50:32;;;;;;;;;;;;;;;25.98;31.71;100175.25;4930554;28;7020;-83
2022/07/20 00:53:00;;;;;;;;;;;;;;;25.95;31.93;100174.44;4944670;28;6952;-83
2022/07/20 00:55:26;;;;;;;;;;;;;;;25.90;31.94;100188.53;4923541;28;7289;-83
2022/07/20 00:57:51;;;;;;;;;;;;;;;25.88;32.06;100189.44;4946251;28;8442;-83
2022/07/20 01:00:17;;;;;;;;;;;;;;;25.89;31.55;100181.56;4942904;28;7719;-83
2022/07/20 01:02:42;;;;;;;;;;;;;;;25.88;31.87;100179.84;4917621;28;7113;-83
2022/07/20 01:05:15;;;;;;;;;;;;;;;25.88;31.48;100177.22;4950556;28;6768;-83
2022/07/20 01:07:46;;;;;;;;;;;;;;;25.87;31.65;100167.56;4943588;28;7033;-83
2022/07/20 01:10:14;;;;;;;;;;;;;;;25.88;31.69;100176.31;4941533;28;7281;-83
2022/07/20 01:12:46;;;;;;;;;;;;;;;25.87;31.68;100172.81;4931450;28;7013;-83
2022/07/20 01:15:11;;;;;;;;;;;;;;;25.87;31.74;100167.56;4917054;28;6952;-83
2022/07/20 01:17:37;;;;;;;;;;;;;;;25.89;32.21;100171.06;4924370;28;7275;-83
2022/07/20 01:20:03;;;;;;;;;;;;;;;25.86;32.10;100165.84;4912290;28;7111;-83
2022/07/20 01:22:30;;;;;;;;;;;;;;;25.87;31.95;100171.97;4940719;28;7284;-83
2022/07/20 01:24:55;;;;;;;;;;;;;;;25.87;31.83;100174.59;4937998;28;9517;-83
2022/07/20 01:27:21;;;;;;;;;;;;;;;25.89;31.64;100165.81;4956888;28;7297;-83
2022/07/20 01:29:46;;;;;;;;;;;;;;;25.91;31.84;100169.25;4931828;28;6780;-83
2022/07/20 01:32:12;;;;;;;;;;;;;;;25.93;31.95;100164.84;4916375;28;7185;-83
2022/07/20 01:34:37;;;;;;;;;;;;;;;25.95;31.62;100163.94;4960123;28;6962;-83
2022/07/20 01:37:03;;;;;;;;;;;;;;;25.95;31.54;100166.56;4928056;28;6958;-82
2022/07/20 01:39:28;;;;;;;;;;;;;;;25.96;31.45;100165.66;4954516;28;6959;-83
2022/07/20 01:41:54;;;;;;;;;;;;;;;25.96;31.36;100165.66;4955242;28;6882;-83
2022/07/20 01:44:21;;;;;;;;;;;;;;;25.97;31.45;100163.03;4930907;28;6917;-83
2022/07/20 01:46:51;;;;;;;;;;;;;;;25.98;31.64;100156.88;4910986;28;7286;-83
2022/07/20 01:49:18;;;;;;;;;;;;;;;26.00;31.62;100168.19;4941005;28;6992;-83
2022/07/20 01:51:44;;;;;;;;;;;;;;;26.02;31.67;100178.69;4930337;28;6960;-83
2022/07/20 01:54:11;;;;;;;;;;;;;;;26.03;31.46;100183.91;4957377;28;6977;-83
2022/07/20 01:56:36;;;;;;;;;;;;;;;26.05;31.54;100176.88;4941955;28;7542;-83
2022/07/20 01:59:02;;;;;;;;;;;;;;;26.08;31.60;100181.19;4954622;28;7288;-83
2022/07/20 02:01:28;;;;;;;;;;;;;;;26.10;31.17;100250.28;4941249;28;7240;-82
2022/07/20 02:03:53;;;;;;;;;;;;;;;26.10;31.31;100223.16;4923145;28;7091;-81
2022/07/20 02:06:19;;;;;;;;;;;;;;;26.18;30.81;100232.63;4923977;28;6963;-80
2022/07/20 02:08:44;;;;;;;;;;;;;;;26.33;30.77;100249.00;4930251;28;7498;-80
2022/07/20 02:11:10;;;;;;;;;;;;;;;26.48;30.69;100239.94;4948207;28;6936;-80
2022/07/20 02:13:37;;;;;;;;;;;;;;;26.62;30.52;100237.91;4934983;28;7053;-79
2022/07/20 02:16:16;;;;;;;;;;;;;;;26.72;30.13;100241.19;4925251;28;7216;-79
2022/07/20 02:18:50;;;;;;;;;;;;;;;26.78;30.32;100239.34;4924189;28;7253;-79
2022/07/20 02:21:18;;;;;;;;;;;;;;;26.83;30.30;100240.09;4923870;28;8497;-79
2022/07/20 02:23:44;;;;;;;;;;;;;;;26.85;30.26;100238.31;4942842;28;7174;-79
2022/07/20 02:26:10;;;;;;;;;;;;;;;26.86;30.12;100242.66;4924612;28;7421;-79
2022/07/20 02:28:36;;;;;;;;;;;;;;;26.87;30.35;100239.13;4924588;28;6979;-79
2022/07/20 02:31:02;;;;;;;;;;;;;;;26.88;30.17;100246.16;4934879;28;8058;-79
2022/07/20 02:33:28;;;;;;;;;;;;;;;26.89;30.45;100258.38;4932405;28;6948;-79
2022/07/20 02:35:54;;;;;;;;;;;;;;;26.92;30.04;100246.94;4916485;29;7178;-80
2022/07/20 02:38:19;;;;;;;;;;;;;;;26.93;30.00;100249.53;4923810;28;7263;-80
2022/07/20 02:40:45;;;;;;;;;;;;;;;27.03;29.60;100253.66;4935311;28;7120;-80
2022/07/20 02:43:11;;;;;;;;;;;;;;;27.12;29.36;100249.97;4954039;28;9594;-79
2022/07/20 02:45:36;;;;;;;;;;;;;;;27.24;29.22;100261.09;4943589;28;6928;-80
2022/07/20 02:48:05;;;;;;;;;;;;;;;27.34;29.27;100265.25;4952590;28;6999;-80
2022/07/20 02:50:33;;;;;;;;;;;;;;;27.40;29.31;100269.50;4957631;28;7249;-79
2022/07/20 02:53:00;;;;;;;;;;;;;;;27.45;29.26;100272.88;4953819;28;6986;-79
2022/07/20 02:55:25;;;;;;;;;;;;;;;27.49;29.46;100271.06;4929890;28;7191;-79
2022/07/20 02:57:52;;;;;;;;;;;;;;;27.51;28.99;100270.09;4955695;28;7208;-80
2022/07/20 03:00:18;;;;;;;;;;;;;;;27.52;29.32;100274.44;4953108;28;6945;-79
2022/07/20 03:02:43;;;;;;;;;;;;;;;27.53;29.42;100283.22;4939811;28;8284;-79
2022/07/20 03:05:09;;;;;;;;;;;;;;;27.52;29.27;100284.13;4902274;28;6951;-79
2022/07/20 03:07:35;;;;;;;;;;;;;;;27.52;29.42;100287.59;4927432;28;7147;-79
2022/07/20 03:10:00;;;;;;;;;;;;;;;27.54;29.54;100295.47;4952818;28;7153;-79
2022/07/20 03:12:26;;;;;;;;;;;;;;;27.53;29.18;100297.25;4916682;28;7017;-80
2022/07/20 03:14:51;;;;;;;;;;;;;;;27.53;29.03;100307.78;4956494;28;6957;-80
2022/07/20 03:17:17;;;;;;;;;;;;;;;27.51;29.46;100309.56;4928580;28;6941;-81
2022/07/20 03:19:44;;;;;;;;;;;;;;;27.50;29.62;100310.47;4944967;28;7226;-81
2022/07/20 03:22:09;;;;;;;;;;;;;;;27.48;30.32;100314.91;4926509;28;7206;-80
2022/07/20 03:24:37;;;;;;;;;;;;;;;27.44;30.57;100323.78;4940795;28;7228;-81
2022/07/20 03:27:03;;;;;;;;;;;;;;;27.41;30.53;100318.59;4943004;28;7278;-80
2022/07/20 03:29:29;;;;;;;;;;;;;;;27.38;31.29;100319.53;4932561;28;6940;-80
2022/07/20 03:31:57;;;;;;;;;;;;;;;27.37;31.26;100322.19;4958496;28;7412;-84
2022/07/20 03:34:23;;;;;;;;;;;;;;;27.36;31.72;100331.00;4931540;28;6788;-82
2022/07/20 03:36:48;;;;;;;;;;;;;;;27.33;31.66;100325.78;4913984;28;7392;-82
2022/07/20 03:39:15;;;;;;;;;;;;;;;27.34;32.19;100338.06;4920714;28;7192;-82
2022/07/20 03:41:40;;;;;;;;;;;;;;;27.31;32.28;100339.84;4943792;28;7047;-81
2022/07/20 03:44:06;;;;;;;;;;;;;;;27.31;32.61;100355.63;4911690;28;7695;-78
2022/07/20 03:46:31;;;;;;;;;;;;;;;27.30;32.67;100343.38;4925227;28;6932;-79
2022/07/20 03:48:57;;;;;;;;;;;;;;;27.30;33.31;100343.38;4941535;28;6995;-78
2022/07/20 03:51:22;;;;;;;;;;;;;;;27.31;33.27;100346.88;4938239;28;7344;-78
2022/07/20 03:53:48;;;;;;;;;;;;;;;27.30;33.42;100347.78;4927306;28;7202;-79
2022/07/20 03:56:14;;;;;;;;;;;;;;;27.27;33.89;100353.09;4930609;28;7137;-79
2022/07/20 03:58:39;;;;;;;;;;;;;;;27.28;34.07;100358.34;4954518;28;7189;-79
2022/07/20 04:01:05;;;;;;;;;;;;;;;27.25;34.17;100361.03;4942438;28;7189;-79
2022/07/20 04:03:30;;;;;;;;;;;;;;;27.23;34.70;100368.06;4928352;28;7072;-78
2022/07/20 04:05:56;;;;;;;;;;;;;;;27.22;34.69;100386.53;4925255;28;6941;-78
2022/07/20 04:08:21;;;;;;;;;;;;;;;27.19;34.86;100392.72;4955731;28;6780;-79
2022/07/20 04:10:47;;;;;;;;;;;;;;;27.19;34.61;100398.00;4930726;28;6954;-79
2022/07/20 04:13:12;;;;;;;;;;;;;;;27.16;34.75;100385.75;4927431;28;7206;-79
2022/07/20 04:15:38;;;;;;;;;;;;;;;27.15;34.96;100399.81;4929253;28;6943;-79
2022/07/20 04:18:03;;;;;;;;;;;;;;;27.16;35.03;100405.97;4950494;28;6992;-79
2022/07/20 04:20:29;;;;;;;;;;;;;;;27.14;35.28;100415.66;4943755;28;7358;-79
2022/07/20 04:22:54;;;;;;;;;;;;;;;27.15;35.67;100423.50;4934806;28;6784;-81
2022/07/20 04:25:22;;;;;;;;;;;;;;;27.15;36.09;100418.22;4946124;28;7295;-80
2022/07/20 04:27:49;;;;;;;;;;;;;;;27.15;36.30;100420.00;4960256;28;7367;-81
2022/07/20 04:30:16;;;;;;;;;;;;;;;27.16;36.60;100425.22;4955493;28;7013;-80
2022/07/20 04:32:42;;;;;;;;;;;;;;;27.17;36.95;100426.09;4915081;28;6952;-81
2022/07/20 04:35:08;;;;;;;;;;;;;;;27.18;37.17;100426.06;4938358;28;6980;-80
2022/07/20 04:37:35;;;;;;;;;;;;;;;27.23;37.57;100440.88;4933844;28;6800;-80
2022/07/20 04:40:05;;;;;;;;;;;;;;;27.24;37.64;100432.09;4934510;28;8903;-80
2022/07/20 04:42:31;;;;;;;;;;;;;;;27.28;37.81;100432.00;4961314;28;7179;-80
2022/07/20 04:44:56;;;;;;;;;;;;;;;27.34;37.99;100428.38;4930198;28;7238;-80
2022/07/20 04:47:22;;;;;;;;;;;;;;;27.41;38.55;100439.63;4958868;28;6780;-79
2022/07/20 04:49:48;;;;;;;;;;;;;;;27.48;38.61;100445.63;4930610;28;7003;-79
2022/07/20 04:52:13;;;;;;;;;;;;;;;27.56;38.88;100455.13;4949474;28;6936;-79
2022/07/20 04:54:40;;;;;;;;;;;;;;;27.64;39.03;100447.03;4917552;28;6953;-78
2022/07/20 04:57:05;;;;;;;;;;;;;;;27.74;38.85;100455.63;4927945;28;7557;-79
2022/07/20 04:59:31;;;;;;;;;;;;;;;27.86;39.15;100452.69;4959887;28;6840;-79
2022/07/20 05:01:56;;;;;;;;;;;;;;;27.99;39.55;100452.38;4928122;28;7252;-79
2022/07/20 05:04:22;;;;;;;;;;;;;;;28.12;39.56;100448.56;4920916;28;7319;-80
2022/07/20 05:06:48;;;;;;;;;;;;;;;28.28;39.31;100448.22;4954049;28;6776;-80
2022/07/20 05:09:13;;;;;;;;;;;;;;;28.44;39.58;100453.09;4959910;28;7021;-80
2022/07/20 05:11:39;;;;;;;;;;;;;;;28.61;39.46;100460.56;4932813;28;7143;-79
2022/07/20 05:14:05;;;;;;;;;;;;;;;28.74;39.29;100466.38;4965278;28;7049;-80
2022/07/20 05:16:31;;;;;;;;;;;;;;;28.82;39.39;100459.13;4926899;28;6952;-79
2022/07/20 05:18:57;;;;;;;;;;;;;;;28.90;39.49;100448.38;4930171;28;7248;-79
2022/07/20 05:21:22;;;;;;;;;;;;;;;29.04;38.97;100458.56;4925682;29;7132;-80
2022/07/20 05:23:48;;;;;;;;;;;;;;;29.15;38.76;100453.81;4938689;28;6938;-80
2022/07/20 05:26:13;;;;;;;;;;;;;;;29.29;38.71;100461.34;4952144;28;6784;-79
2022/07/20 05:28:43;;;;;;;;;;;;;;;29.37;38.78;100453.22;4954108;28;6803;-78
2022/07/20 05:31:09;;;;;;;;;;;;;;;29.47;38.56;100464.38;4938716;28;6804;-78
2022/07/20 05:33:36;;;;;;;;;;;;;;;29.60;39.29;100459.59;4922733;28;7089;-79
2022/07/20 05:36:02;;;;;;;;;;;;;;;29.83;38.67;100474.72;4926870;28;6969;-78
2022/07/20 05:38:29;;;;;;;;;;;;;;;30.05;38.12;100468.78;4928504;28;6943;-78
2022/07/20 05:40:55;;;;;;;;;;;;;;;30.28;38.10;100469.81;4943926;28;6830;-80
2022/07/20 05:43:20;;;;;;;;;;;;;;;30.48;38.18;100477.06;4956251;28;7285;-79
2022/07/20 05:45:46;;;;;;;;;;;;;;;30.67;38.33;100482.63;4928122;28;6792;-79
2022/07/20 05:48:12;;;;;;;;;;;;;;;30.85;37.87;100489.03;4956339;28;7086;-79
2022/07/20 05:50:39;;;;;;;;;;;;;;;30.97;36.61;100493.03;4954916;28;6924;-81
2022/07/20 05:53:05;;;;;;;;;;;;;;;31.06;36.83;100502.41;4955178;28;7184;-79
2022/07/20 05:55:31;;;;;;;;;;;;;;;31.09;36.86;100507.56;4945252;28;6975;-80
2022/07/20 05:57:57;;;;;;;;;;;;;;;31.07;36.61;100506.78;4960392;28;6942;-81
2022/07/20 06:00:22;;;;;;;;;;;;;;;31.01;36.40;100501.72;4943559;28;7060;-81
2022/07/20 06:02:48;;;;;;;;;;;;;;;30.92;36.65;100502.06;4952233;28;7229;-82
2022/07/20 06:05:13;;;;;;;;;;;;;;;30.84;36.60;100503.19;4938491;28;7393;-82
2022/07/20 06:07:39;;;;;;;;;;;;;;;30.74;36.45;100499.13;4955915;28;7070;-79
2022/07/20 06:10:05;;;;;;;;;;;;;;;30.62;37.31;100526.84;4930542;28;6757;-80
2022/07/20 06:12:31;;;;;;;;;;;;;;;30.47;36.68;100534.38;4937909;28;7471;-79
2022/07/20 06:14:56;;;;;;;;;;;;;;;30.33;37.32;100550.69;4921183;28;6748;-78
2022/07/20 06:17:22;;;;;;;;;;;;;;;30.19;37.69;100558.19;4920951;29;6924;-79
2022/07/20 06:19:47;;;;;;;;;;;;;;;30.07;37.31;100562.94;4924539;28;6921;-79
2022/07/20 06:22:13;;;;;;;;;;;;;;;30.01;37.58;100562.25;4911332;28;8047;-77
2022/07/20 06:24:38;;;;;;;;;;;;;;;29.98;37.48;100573.78;4949738;28;6771;-78
2022/07/20 06:27:04;;;;;;;;;;;;;;;29.98;38.21;100572.88;4951859;28;7105;-78
2022/07/20 06:29:29;;;;;;;;;;;;;;;29.97;39.03;100582.59;4909718;28;7154;-77
2022/07/20 06:31:55;;;;;;;;;;;;;;;29.98;38.72;100588.75;4926317;28;6835;-79
2022/07/20 06:34:20;;;;;;;;;;;;;;;30.00;38.25;100598.34;4926060;29;7094;-79
2022/07/20 06:36:46;;;;;;;;;;;;;;;29.96;38.75;100617.88;4935838;28;6768;-77
2022/07/20 06:39:12;;;;;;;;;;;;;;;29.90;38.60;100618.03;4926107;29;6856;-77
2022/07/20 06:41:38;;;;;;;;;;;;;;;29.82;38.80;100617.41;4907889;28;7083;-80
2022/07/20 06:44:03;;;;;;;;;;;;;;;29.72;39.10;100620.31;4948378;28;7191;-78
2022/07/20 06:46:29;;;;;;;;;;;;;;;29.65;38.67;100631.97;4921555;28;6962;-79
2022/07/20 06:48:54;;;;;;;;;;;;;;;29.59;39.07;100640.06;4937696;28;7277;-81
2022/07/20 06:51:20;;;;;;;;;;;;;;;29.56;38.58;100650.72;4926826;28;6776;-80
2022/07/20 06:53:45;;;;;;;;;;;;;;;29.53;39.38;100654.28;4922425;29;7185;-79
2022/07/20 06:56:11;;;;;;;;;;;;;;;29.55;39.59;100672.72;4946890;28;6937;-79
2022/07/20 06:58:36;;;;;;;;;;;;;;;29.58;39.11;100685.84;4924251;28;7272;-80
2022/07/20 07:01:02;;;;;;;;;;;;;;;29.59;39.44;100671.75;4951129;28;7186;-81
2022/07/20 07:03:27;;;;;;;;;;;;;;;29.59;39.22;100677.03;4925571;28;6765;-82
2022/07/20 07:05:53;;;;;;;;;;;;;;;29.58;39.66;100675.28;4938730;28;7008;-82
2022/07/20 07:08:18;;;;;;;;;;;;;;;29.57;39.47;100690.25;4942605;28;7635;-81
2022/07/20 07:10:44;;;;;;;;;;;;;;;29.50;39.15;100684.28;4917106;29;6814;-82
2022/07/20 07:13:09;;;;;;;;;;;;;;;29.45;40.05;100680.88;4946030;28;6977;-82
2022/07/20 07:15:35;;;;;;;;;;;;;;;29.49;40.20;100689.59;4914772;28;6945;-82
2022/07/20 07:18:01;;;;;;;;;;;;;;;29.54;40.25;100697.38;4920008;29;6958;-81
2022/07/20 07:20:26;;;;;;;;;;;;;;;29.55;40.13;100691.19;4918345;28;7047;-81
2022/07/20 07:22:52;;;;;;;;;;;;;;;29.49;40.14;100693.09;4955415;28;7165;-81
2022/07/20 07:25:17;;;;;;;;;;;;;;;29.45;39.68;100694.06;4951073;28;7342;-81
2022/07/20 07:27:43;;;;;;;;;;;;;;;29.43;40.21;100705.56;4941311;28;7064;-80
2022/07/20 07:30:09;;;;;;;;;;;;;;;29.47;40.21;100705.50;4926468;28;7019;-81
2022/07/20 07:32:34;;;;;;;;;;;;;;;29.68;40.42;100686.44;4941320;28;6933;-80
2022/07/20 07:35:00;;;;;;;;;;;;;;;29.91;40.08;100696.38;4944781;28;7194;-81
2022/07/20 07:37:25;;;;;;;;;;;;;;;30.13;39.90;100685.22;4931572;28;7167;-81
2022/07/20 07:39:51;;;;;;;;;;;;;;;30.38;39.13;100690.66;4951136;28;7094;-80
2022/07/20 07:42:16;;;;;;;;;;;;;;;30.62;39.56;100699.59;4949598;28;7221;-81
2022/07/20 07:44:42;;;;;;;;;;;;;;;30.90;38.93;100708.47;4929891;28;8470;-81
2022/07/20 07:47:07;;;;;;;;;;;;;;;31.16;37.79;100717.34;4961177;28;8380;-80
2022/07/20 07:49:33;;;;;;;;;;;;;;;31.38;37.50;100738.66;4944288;28;8154;-80
2022/07/20 07:51:58;;;;;;;;;;;;;;;31.51;36.96;100736.47;4934876;28;8247;-81
2022/07/20 07:54:24;;;;;;;;;;;;;;;31.54;36.28;100731.09;4959416;28;7028;-81
2022/07/20 07:56:50;;;;;;;;;;;;;;;31.58;36.89;100729.16;4933724;28;7190;-81
2022/07/20 07:59:15;;;;;;;;;;;;;;;31.63;36.08;100726.34;4917842;28;6949;-81
2022/07/20 08:01:42;;;;;;;;;;;;;;;31.67;35.94;100720.88;4952623;28;7312;-80
2022/07/20 08:04:07;;;;;;;;;;;;;;;31.76;35.97;100726.78;4911636;28;7365;-80
2022/07/20 08:06:33;;;;;;;;;;;;;;;31.86;36.50;100723.78;4953400;28;6937;-81
2022/07/20 08:08:59;;;;;;;;;;;;;;;32.03;36.07;100710.84;4956480;28;7107;-81
2022/07/20 08:11:24;;;;;;;;;;;;;;;32.23;35.82;100704.78;4955938;28;6972;-81
2022/07/20 08:13:50;;;;;;;;;;;;;;;32.50;35.40;100705.53;4943485;28;7226;-81
2022/07/20 08:16:16;;;;;;;;;;;;;;;32.76;35.18;100708.94;4961512;28;7012;-81
2022/07/20 08:18:41;;;;;;;;;;;;;;;33.02;34.55;100699.06;4927924;28;6962;-81
2022/07/20 08:21:07;;;;;;;;;;;;;;;33.21;33.75;100701.81;4910666;28;6904;-81
2022/07/20 08:23:32;;;;;;;;;;;;;;;33.29;33.82;100720.06;4966972;28;7263;-81
2022/07/20 08:25:58;;;;;;;;;;;;;;;33.31;33.17;100738.59;4954039;28;6801;-81
2022/07/20 08:28:23;;;;;;;;;;;;;;;33.37;33.37;100746.31;4926909;28;7127;-81
2022/07/20 08:30:52;;;;;;;;;;;;;;;33.51;33.22;100737.75;4945132;28;6953;-81
2022/07/20 08:33:18;;;;;;;;;;;;;;;33.62;32.69;100724.91;4935216;28;6983;-80
2022/07/20 08:35:44;;;;;;;;;;;;;;;33.70;32.78;100732.53;4923506;28;7220;-80
2022/07/20 08:38:10;;;;;;;;;;;;;;;33.79;32.46;100760.47;4944322;28;7286;-80
2022/07/20 08:40:36;;;;;;;;;;;;;;;33.81;32.35;100774.56;4927874;28;6951;-80
2022/07/20 08:43:02;;;;;;;;;;;;;;;34.03;32.22;100739.94;4912947;28;7059;-81
2022/07/20 08:45:28;;;;;;;;;;;;;;;34.32;31.97;100703.16;4938169;28;9046;-80
2022/07/20 08:47:57;;;;;;;;;;;;;;;34.40;31.07;100665.56;4927241;28;7215;-80
2022/07/20 08:50:24;;;;;;;;;;;;;;;34.43;31.65;100629.94;4930647;28;7192;-80
2022/07/20 08:52:52;;;;;;;;;;;;;;;34.51;30.84;100617.13;4940339;28;7142;-80
2022/07/20 08:55:18;;;;;;;;;;;;;;;34.56;30.69;100566.38;4942513;28;6985;-80
2022/07/20 08:57:44;;;;;;;;;;;;;;;34.49;30.60;100501.97;4953454;28;7090;-80
2022/07/20 09:00:10;;;;;;;;;;;;;;;34.17;30.85;100501.81;4930309;28;6965;-80
2022/07/20 09:02:49;;;;;;;;;;;;;;;33.60;30.94;100616.97;4920269;28;6862;-80
2022/07/20 09:05:15;;;;;;;;;;;;;;;33.11;31.85;100676.59;4936299;28;6983;-80
2022/07/20 09:07:46;;;;;;;;;;;;;;;32.71;31.95;100681.72;4952910;28;7683;-81
2022/07/20 09:10:14;;;;;;;;;;;;;;;32.41;32.60;100693.50;4911447;28;7009;-79
2022/07/20 09:12:59;;;;;;;;;;;;;;;32.16;32.90;100717.44;4937353;28;6784;-80
2022/07/20 09:15:34;;;;;;;;;;;;;;;31.98;33.65;100706.59;4924082;28;7210;-80
2022/07/20 09:18:05;;;;;;;;;;;;;;;31.90;34.57;100729.84;4957792;28;6889;-80
2022/07/20 09:20:33;;;;;;;;;;;;;;;31.94;34.07;100723.50;4938654;28;7222;-80
2022/07/20 09:23:01;;;;;;;;;;;;;;;31.99;34.76;100710.97;4954345;28;7107;-80
2022/07/20 09:25:26;;;;;;;;;;;;;;;32.13;34.56;100728.13;4948492;28;6992;-80
2022/07/20 09:27:52;;;;;;;;;;;;;;;32.34;34.70;100729.09;4929054;28;7103;-80
2022/07/20 09:30:18;;;;;;;;;;;;;;;32.57;34.25;100731.81;4939302;28;6973;-80
2022/07/20 09:33:01;;;;;;;;;;;;;;;32.95;34.16;100761.31;4942409;28;7114;-80
2022/07/20 09:35:30;;;;;;;;;;;;;;;33.35;34.27;100762.31;4933334;28;7228;-80
2022/07/20 09:37:57;;;;;;;;;;;;;;;33.91;34.04;100759.06;4920147;28;6850;-80
2022/07/20 09:40:24;;;;;;;;;;;;;;;34.58;33.17;100756.94;4951637;28;7244;-79
2022/07/20 09:42:49;;;;;;;;;;;;;;;35.32;32.70;100748.97;4947551;28;6988;-80
2022/07/20 09:45:23;;;;;;;;;;;;;;;36.06;31.92;100746.97;4948071;28;7250;-81
2022/07/20 09:48:07;;;;;;;;;;;;;;;36.77;30.50;100746.66;4936256;28;6795;-81
2022/07/20 09:50:36;;;;;;;;;;;;;;;37.16;29.12;100758.66;4913695;28;7090;-81
2022/07/20 09:53:02;;;;;;;;;;;;;;;37.40;29.10;100766.19;4943031;28;7357;-81
2022/07/20 09:55:27;;;;;;;;;;;;;;;37.65;28.24;100767.38;4923636;28;7118;-81
2022/07/20 09:57:54;;;;;;;;;;;;;;;37.92;27.61;100750.59;4941660;28;7011;-81
2022/07/20 10:00:20;;;;;;;;;;;;;;;38.17;27.41;100744.59;4919976;28;8548;-81
2022/07/20 10:02:52;;;;;;;;;;;;;;;38.37;27.13;100749.63;4928859;28;7171;-81
2022/07/20 10:05:21;;;;;;;;;;;;;;;38.56;26.73;100760.03;4939538;28;8535;-81
2022/07/20 10:07:47;;;;;;;;;;;;;;;38.69;26.25;100766.31;4929031;28;6833;-81
2022/07/20 10:10:14;;;;;;;;;;;;;;;38.92;26.31;100757.69;4940173;28;7239;-81
2022/07/20 10:12:39;;;;;;;;;;;;;;;39.13;25.98;100768.81;4941083;28;7563;-81
2022/07/20 10:15:11;;;;;;;;;;;;;;;39.34;25.46;100754.91;4924350;28;6922;-82
2022/07/20 10:17:38;;;;;;;;;;;;;;;39.65;25.15;100742.97;4922816;28;6968;-80
2022/07/20 10:20:07;;;;;;;;;;;;;;;40.01;25.16;100745.00;4958444;28;7199;-81
2022/07/20 10:22:33;;;;;;;;;;;;;;;40.37;24.63;100728.06;4913320;28;7033;-81
2022/07/20 10:25:17;;;;;;;;;;;;;;;40.77;24.06;100724.28;4958612;28;6965;-81
2022/07/20 10:27:43;;;;;;;;;;;;;;;41.02;23.63;100733.16;4943882;28;7155;-83
2022/07/20 10:30:17;;;;;;;;;;;;;;;41.26;23.50;100734.97;4945107;28;6772;-81
2022/07/20 10:32:56;;;;;;;;;;;;;;;41.49;23.35;100740.38;4924891;28;11225;-82
2022/07/20 10:35:31;;;;;;;;;;;;;;;41.26;22.84;100748.41;4946966;28;7399;-81
2022/07/20 10:37:57;;;;;;;;;;;;;;;40.98;23.05;100741.56;4909054;29;8886;-82
2022/07/20 10:40:25;;;;;;;;;;;;;;;40.95;23.28;100742.63;4953489;28;7405;-81
2022/07/20 10:42:55;;;;;;;;;;;;;;;41.05;22.99;100741.00;4952516;28;7052;-81
2022/07/20 10:45:20;;;;;;;;;;;;;;;40.63;22.80;100738.72;4934423;28;6965;-81
2022/07/20 10:47:47;;;;;;;;;;;;;;;40.32;23.26;100745.50;4937216;28;6983;-81
2022/07/20 10:50:30;;;;;;;;;;;;;;;40.25;23.58;100735.16;4953361;28;7034;-81
2022/07/20 10:53:17;;;;;;;;;;;;;;;40.47;23.25;100738.13;4942119;28;8625;-81
2022/07/20 10:55:46;;;;;;;;;;;;;;;40.79;23.30;100743.81;4930570;28;6980;-81
2022/07/20 10:58:18;;;;;;;;;;;;;;;40.98;23.17;100752.31;4925180;29;7181;-81
2022/07/20 11:00:57;;;;;;;;;;;;;;;40.99;22.91;100744.13;4937628;28;7036;-81
2022/07/20 11:03:27;;;;;;;;;;;;;;;40.94;22.81;100740.94;4936465;28;7399;-82
2022/07/20 11:06:02;;;;;;;;;;;;;;;40.91;23.16;100738.50;4928376;28;8165;-82
2022/07/20 11:08:28;;;;;;;;;;;;;;;40.89;22.70;100729.69;4931962;28;6833;-81
2022/07/20 11:10:54;;;;;;;;;;;;;;;40.62;22.69;100741.50;4948118;28;6960;-82
2022/07/20 11:13:19;;;;;;;;;;;;;;;40.29;22.68;100721.53;4948169;28;6989;-82
2022/07/20 11:15:54;;;;;;;;;;;;;;;40.09;23.05;100722.00;4930756;28;6925;-83
2022/07/20 11:18:22;;;;;;;;;;;;;;;40.19;23.27;100714.16;4940609;28;7214;-81
2022/07/20 11:20:51;;;;;;;;;;;;;;;40.49;23.47;100720.06;4929445;28;6826;-82
2022/07/20 11:23:19;;;;;;;;;;;;;;;40.90;22.96;100717.97;4944036;28;6929;-81
2022/07/20 11:25:44;;;;;;;;;;;;;;;41.16;22.70;100724.03;4918367;28;6968;-81
2022/07/20 11:28:11;;;;;;;;;;;;;;;41.34;22.44;100724.47;4942864;28;7154;-81
2022/07/20 11:30:38;;;;;;;;;;;;;;;41.26;22.52;100728.72;4951449;28;7267;-80
2022/07/20 11:33:03;;;;;;;;;;;;;;;40.96;22.53;100726.41;4911732;28;7901;-81
2022/07/20 11:35:29;;;;;;;;;;;;;;;40.60;22.69;100724.66;4948120;28;7293;-80
2022/07/20 11:37:55;;;;;;;;;;;;;;;40.48;22.83;100726.41;4943963;28;6945;-80
2022/07/20 11:40:22;;;;;;;;;;;;;;;40.71;23.20;100734.56;4916700;28;7067;-82
2022/07/20 11:43:07;;;;;;;;;;;;;;;41.04;22.61;100723.13;4944743;28;6956;-82
2022/07/20 11:45:32;;;;;;;;;;;;;;;41.31;22.51;100719.31;4911108;28;7031;-81
2022/07/20 11:47:58;;;;;;;;;;;;;;;41.63;22.44;100699.81;4951522;28;6954;-81
2022/07/20 11:50:32;;;;;;;;;;;;;;;41.90;22.09;100701.28;4915329;28;6960;-81
2022/07/20 11:52:57;;;;;;;;;;;;;;;42.13;21.96;100695.91;4952301;28;8708;-81
2022/07/20 11:55:34;;;;;;;;;;;;;;;42.19;21.53;100689.16;4927828;28;7291;-81
2022/07/20 11:57:59;;;;;;;;;;;;;;;42.23;21.30;100692.44;4955372;28;7216;-81
2022/07/20 12:00:27;;;;;;;;;;;;;;;42.28;21.30;100698.28;4954443;28;7004;-81
2022/07/20 12:02:53;;;;;;;;;;;;;;;42.31;21.45;100703.44;4919374;28;6897;-81
2022/07/20 12:05:19;;;;;;;;;;;;;;;42.01;21.21;100680.69;4939202;28;7086;-81
2022/07/20 12:10:28;;;;;;;;;;;;;;;41.08;21.81;100695.06;4936872;28;6781;-81
2022/07/20 12:13:05;;;;;;;;;;;;;;;40.78;22.04;100693.75;4920720;28;7486;-81
2022/07/20 12:15:33;;;;;;;;;;;;;;;40.55;22.09;100704.38;4947552;28;7045;-81
2022/07/20 12:17:58;;;;;;;;;;;;;;;40.28;22.26;100693.81;4922687;28;7042;-81
2022/07/20 12:20:25;;;;;;;;;;;;;;;39.85;22.19;100695.97;4953546;28;7391;-81
2022/07/20 12:22:54;;;;;;;;;;;;;;;39.33;22.61;100695.13;4926366;28;7103;-81
2022/07/20 12:25:20;;;;;;;;;;;;;;;38.88;23.08;100690.94;4927007;28;6965;-81
2022/07/20 12:27:46;;;;;;;;;;;;;;;38.85;23.79;100690.28;4923561;28;6829;-81
2022/07/20 12:30:31;;;;;;;;;;;;;;;39.29;23.81;100682.88;4945995;28;8634;-81
2022/07/20 12:33:14;;;;;;;;;;;;;;;39.91;23.72;100667.88;4958693;28;11509;-81
2022/07/20 12:35:48;;;;;;;;;;;;;;;40.48;22.86;100668.22;4933151;28;7406;-81
2022/07/20 12:38:15;;;;;;;;;;;;;;;40.68;22.19;100676.59;4934561;28;7053;-81
2022/07/20 12:40:46;;;;;;;;;;;;;;;40.41;22.07;100675.84;4937748;28;6840;-81
2022/07/20 12:43:31;;;;;;;;;;;;;;;39.96;22.15;100673.75;4914389;28;7038;-81
2022/07/20 12:46:05;;;;;;;;;;;;;;;39.62;22.40;100665.44;4942576;28;6967;-81
2022/07/20 12:48:31;;;;;;;;;;;;;;;39.63;22.86;100668.94;4903654;28;7237;-81
2022/07/20 12:50:56;;;;;;;;;;;;;;;39.96;22.76;100660.31;4941347;28;6948;-82
2022/07/20 12:53:23;;;;;;;;;;;;;;;40.34;22.29;100661.22;4926187;28;6966;-82